sensor_id;sensor_type;location;lat;lon;timestamp;P1;durP1;ratioP1;P2;durP2;ratioP2
68097;SDS011;54886;47.036;15.466;2023-04-03T00:02:02;2.95;;;1.95;;
68097;SDS011;54886;47.036;15.466;2023-04-03T00:04:27;2.92;;;1.95;;
68097;SDS011;54886;47.036;15.466;2023-04-03T00:06:53;2.83;;;1.90;;
68097;SDS011;54886;47.036;15.466;2023-04-03T00:09:18;1.83;;;1.70;;
68097;SDS011;54886;47.036;15.466;2023-04-03T00:11:43;2.05;;;1.85;;
68097;SDS011;54886;47.036;15.466;2023-04-03T00:14:09;2.95;;;2.03;;
68097;SDS011;54886;47.036;15.466;2023-04-03T00:16:34;2.33;;;1.80;;
68097;SDS011;54886;47.036;15.466;2023-04-03T00:19:00;2.38;;;1.77;;
68097;SDS011;54886;47.036;15.466;2023-04-03T00:21:25;3.03;;;2.10;;
68097;SDS011;54886;47.036;15.466;2023-04-03T00:23:51;2.75;;;1.92;;
68097;SDS011;54886;47.036;15.466;2023-04-03T00:26:16;2.03;;;1.83;;
68097;SDS011;54886;47.036;15.466;2023-04-03T00:28:41;3.38;;;2.08;;
68097;SDS011;54886;47.036;15.466;2023-04-03T00:31:07;3.08;;;2.00;;
68097;SDS011;54886;47.036;15.466;2023-04-03T00:33:32;2.10;;;1.90;;
68097;SDS011;54886;47.036;15.466;2023-04-03T00:35:58;3.80;;;2.13;;
68097;SDS011;54886;47.036;15.466;2023-04-03T00:38:23;2.92;;;1.90;;
68097;SDS011;54886;47.036;15.466;2023-04-03T00:40:49;2.42;;;1.80;;
68097;SDS011;54886;47.036;15.466;2023-04-03T00:43:19;3.55;;;2.00;;
68097;SDS011;54886;47.036;15.466;2023-04-03T00:45:48;2.60;;;1.92;;
68097;SDS011;54886;47.036;15.466;2023-04-03T00:48:37;2.72;;;1.98;;
68097;SDS011;54886;47.036;15.466;2023-04-03T00:51:09;2.97;;;2.20;;
68097;SDS011;54886;47.036;15.466;2023-04-03T00:53:46;3.03;;;2.00;;
68097;SDS011;54886;47.036;15.466;2023-04-03T00:56:15;2.25;;;1.80;;
68097;SDS011;54886;47.036;15.466;2023-04-03T00:58:45;2.70;;;1.85;;
68097;SDS011;54886;47.036;15.466;2023-04-03T01:01:16;4.28;;;2.03;;
68097;SDS011;54886;47.036;15.466;2023-04-03T01:03:45;3.40;;;2.00;;
68097;SDS011;54886;47.036;15.466;2023-04-03T01:06:10;3.15;;;2.10;;
68097;SDS011;54886;47.036;15.466;2023-04-03T01:08:37;2.42;;;1.90;;
68097;SDS011;54886;47.036;15.466;2023-04-03T01:11:03;2.63;;;2.10;;
68097;SDS011;54886;47.036;15.466;2023-04-03T01:13:30;3.05;;;1.90;;
68097;SDS011;54886;47.036;15.466;2023-04-03T01:15:56;2.60;;;1.88;;
68097;SDS011;54886;47.036;15.466;2023-04-03T01:18:25;2.13;;;1.90;;
68097;SDS011;54886;47.036;15.466;2023-04-03T01:26:14;3.42;;;1.90;;
68097;SDS011;54886;47.036;15.466;2023-04-03T01:28:40;3.75;;;1.95;;
68097;SDS011;54886;47.036;15.466;2023-04-03T01:31:18;2.45;;;1.90;;
68097;SDS011;54886;47.036;15.466;2023-04-03T01:34:07;3.20;;;2.17;;
68097;SDS011;54886;47.036;15.466;2023-04-03T01:36:32;1.92;;;1.80;;
68097;SDS011;54886;47.036;15.466;2023-04-03T01:38:58;2.53;;;1.90;;
68097;SDS011;54886;47.036;15.466;2023-04-03T01:41:25;4.20;;;2.20;;
68097;SDS011;54886;47.036;15.466;2023-04-03T01:43:51;2.65;;;1.95;;
68097;SDS011;54886;47.036;15.466;2023-04-03T01:46:17;3.40;;;2.00;;
68097;SDS011;54886;47.036;15.466;2023-04-03T01:48:43;3.42;;;1.83;;
68097;SDS011;54886;47.036;15.466;2023-04-03T01:51:09;2.83;;;1.90;;
68097;SDS011;54886;47.036;15.466;2023-04-03T01:53:35;3.17;;;2.10;;
68097;SDS011;54886;47.036;15.466;2023-04-03T01:56:00;2.55;;;2.00;;
68097;SDS011;54886;47.036;15.466;2023-04-03T01:58:25;3.65;;;1.92;;
68097;SDS011;54886;47.036;15.466;2023-04-03T02:00:51;2.45;;;1.95;;
68097;SDS011;54886;47.036;15.466;2023-04-03T02:03:17;2.20;;;1.90;;
68097;SDS011;54886;47.036;15.466;2023-04-03T02:05:42;2.53;;;1.90;;
68097;SDS011;54886;47.036;15.466;2023-04-03T02:08:08;3.00;;;2.10;;
68097;SDS011;54886;47.036;15.466;2023-04-03T02:10:33;2.83;;;1.80;;
68097;SDS011;54886;47.036;15.466;2023-04-03T02:12:59;2.53;;;2.00;;
68097;SDS011;54886;47.036;15.466;2023-04-03T02:15:24;3.03;;;1.90;;
68097;SDS011;54886;47.036;15.466;2023-04-03T02:17:50;2.67;;;2.03;;
68097;SDS011;54886;47.036;15.466;2023-04-03T02:20:15;3.25;;;2.05;;
68097;SDS011;54886;47.036;15.466;2023-04-03T02:22:41;2.10;;;1.88;;
68097;SDS011;54886;47.036;15.466;2023-04-03T02:25:07;3.55;;;2.13;;
68097;SDS011;54886;47.036;15.466;2023-04-03T02:27:32;2.65;;;1.80;;
68097;SDS011;54886;47.036;15.466;2023-04-03T02:29:58;2.03;;;1.70;;
68097;SDS011;54886;47.036;15.466;2023-04-03T02:32:23;3.20;;;2.13;;
68097;SDS011;54886;47.036;15.466;2023-04-03T02:34:48;2.30;;;1.85;;
68097;SDS011;54886;47.036;15.466;2023-04-03T02:37:14;4.22;;;2.20;;
68097;SDS011;54886;47.036;15.466;2023-04-03T02:39:40;2.40;;;1.85;;
68097;SDS011;54886;47.036;15.466;2023-04-03T02:42:05;2.53;;;2.00;;
68097;SDS011;54886;47.036;15.466;2023-04-03T02:44:30;2.13;;;1.88;;
68097;SDS011;54886;47.036;15.466;2023-04-03T02:46:56;4.80;;;1.92;;
68097;SDS011;54886;47.036;15.466;2023-04-03T02:49:21;2.80;;;1.90;;
68097;SDS011;54886;47.036;15.466;2023-04-03T02:51:46;3.08;;;1.98;;
68097;SDS011;54886;47.036;15.466;2023-04-03T02:54:12;2.30;;;1.88;;
68097;SDS011;54886;47.036;15.466;2023-04-03T02:56:38;2.78;;;2.00;;
68097;SDS011;54886;47.036;15.466;2023-04-03T02:59:04;3.25;;;1.90;;
68097;SDS011;54886;47.036;15.466;2023-04-03T03:01:30;4.63;;;2.10;;
68097;SDS011;54886;47.036;15.466;2023-04-03T03:03:57;6.03;;;2.60;;
68097;SDS011;54886;47.036;15.466;2023-04-03T03:06:24;4.32;;;2.30;;
68097;SDS011;54886;47.036;15.466;2023-04-03T03:08:49;2.75;;;1.92;;
68097;SDS011;54886;47.036;15.466;2023-04-03T03:11:15;2.63;;;1.90;;
68097;SDS011;54886;47.036;15.466;2023-04-03T03:13:40;3.28;;;2.05;;
68097;SDS011;54886;47.036;15.466;2023-04-03T03:16:06;3.22;;;1.70;;
68097;SDS011;54886;47.036;15.466;2023-04-03T03:18:32;4.68;;;2.10;;
68097;SDS011;54886;47.036;15.466;2023-04-03T03:20:59;2.42;;;1.90;;
68097;SDS011;54886;47.036;15.466;2023-04-03T03:23:26;3.13;;;2.08;;
68097;SDS011;54886;47.036;15.466;2023-04-03T03:25:57;3.25;;;2.38;;
68097;SDS011;54886;47.036;15.466;2023-04-03T03:28:24;3.28;;;1.95;;
68097;SDS011;54886;47.036;15.466;2023-04-03T03:30:50;2.08;;;1.80;;
68097;SDS011;54886;47.036;15.466;2023-04-03T03:33:15;4.47;;;2.10;;
68097;SDS011;54886;47.036;15.466;2023-04-03T03:35:42;2.35;;;1.90;;
68097;SDS011;54886;47.036;15.466;2023-04-03T03:38:08;2.60;;;1.77;;
68097;SDS011;54886;47.036;15.466;2023-04-03T03:40:33;4.60;;;1.92;;
68097;SDS011;54886;47.036;15.466;2023-04-03T03:42:59;2.35;;;1.90;;
68097;SDS011;54886;47.036;15.466;2023-04-03T03:45:24;1.85;;;1.70;;
68097;SDS011;54886;47.036;15.466;2023-04-03T03:47:50;2.42;;;1.80;;
68097;SDS011;54886;47.036;15.466;2023-04-03T03:50:15;2.58;;;1.80;;
68097;SDS011;54886;47.036;15.466;2023-04-03T03:52:41;3.47;;;1.90;;
68097;SDS011;54886;47.036;15.466;2023-04-03T03:55:06;2.28;;;1.80;;
68097;SDS011;54886;47.036;15.466;2023-04-03T03:57:32;2.40;;;1.75;;
68097;SDS011;54886;47.036;15.466;2023-04-03T03:59:57;2.67;;;1.85;;
68097;SDS011;54886;47.036;15.466;2023-04-03T04:02:23;1.83;;;1.70;;
68097;SDS011;54886;47.036;15.466;2023-04-03T04:04:48;2.42;;;1.70;;
68097;SDS011;54886;47.036;15.466;2023-04-03T04:07:13;2.00;;;1.80;;
68097;SDS011;54886;47.036;15.466;2023-04-03T04:09:39;3.53;;;1.90;;
68097;SDS011;54886;47.036;15.466;2023-04-03T04:12:04;3.33;;;1.90;;
68097;SDS011;54886;47.036;15.466;2023-04-03T04:14:30;3.53;;;1.80;;
68097;SDS011;54886;47.036;15.466;2023-04-03T04:16:56;4.35;;;1.88;;
68097;SDS011;54886;47.036;15.466;2023-04-03T04:19:21;2.25;;;1.80;;
68097;SDS011;54886;47.036;15.466;2023-04-03T04:21:47;2.00;;;1.80;;
68097;SDS011;54886;47.036;15.466;2023-04-03T04:24:12;1.95;;;1.67;;
68097;SDS011;54886;47.036;15.466;2023-04-03T04:26:37;2.92;;;1.92;;
68097;SDS011;54886;47.036;15.466;2023-04-03T04:29:03;2.97;;;1.80;;
68097;SDS011;54886;47.036;15.466;2023-04-03T04:31:28;3.80;;;1.98;;
68097;SDS011;54886;47.036;15.466;2023-04-03T04:33:53;4.28;;;1.95;;
68097;SDS011;54886;47.036;15.466;2023-04-03T04:36:19;2.80;;;1.80;;
68097;SDS011;54886;47.036;15.466;2023-04-03T04:38:44;2.28;;;1.73;;
68097;SDS011;54886;47.036;15.466;2023-04-03T04:41:10;2.00;;;1.80;;
68097;SDS011;54886;47.036;15.466;2023-04-03T04:43:35;3.22;;;1.95;;
68097;SDS011;54886;47.036;15.466;2023-04-03T04:46:05;3.00;;;2.10;;
68097;SDS011;54886;47.036;15.466;2023-04-03T04:48:31;2.55;;;1.90;;
68097;SDS011;54886;47.036;15.466;2023-04-03T04:50:57;2.60;;;1.70;;
68097;SDS011;54886;47.036;15.466;2023-04-03T04:53:22;4.85;;;1.90;;
68097;SDS011;54886;47.036;15.466;2023-04-03T04:55:47;2.70;;;2.10;;
68097;SDS011;54886;47.036;15.466;2023-04-03T04:58:13;2.70;;;1.88;;
68097;SDS011;54886;47.036;15.466;2023-04-03T05:00:38;3.50;;;2.10;;
68097;SDS011;54886;47.036;15.466;2023-04-03T05:03:04;5.50;;;2.22;;
68097;SDS011;54886;47.036;15.466;2023-04-03T05:05:29;3.38;;;2.13;;
68097;SDS011;54886;47.036;15.466;2023-04-03T05:07:55;4.93;;;1.95;;
68097;SDS011;54886;47.036;15.466;2023-04-03T05:10:20;4.78;;;2.45;;
68097;SDS011;54886;47.036;15.466;2023-04-03T05:12:46;5.55;;;2.10;;
68097;SDS011;54886;47.036;15.466;2023-04-03T05:15:11;3.92;;;2.20;;
68097;SDS011;54886;47.036;15.466;2023-04-03T05:17:37;6.68;;;2.80;;
68097;SDS011;54886;47.036;15.466;2023-04-03T05:20:02;6.15;;;2.85;;
68097;SDS011;54886;47.036;15.466;2023-04-03T05:22:29;4.40;;;2.60;;
68097;SDS011;54886;47.036;15.466;2023-04-03T05:24:55;7.43;;;2.50;;
68097;SDS011;54886;47.036;15.466;2023-04-03T05:27:21;2.13;;;1.88;;
68097;SDS011;54886;47.036;15.466;2023-04-03T05:29:48;3.17;;;1.88;;
68097;SDS011;54886;47.036;15.466;2023-04-03T05:32:13;3.05;;;1.67;;
68097;SDS011;54886;47.036;15.466;2023-04-03T05:34:39;2.10;;;1.60;;
68097;SDS011;54886;47.036;15.466;2023-04-03T05:37:04;2.83;;;1.92;;
68097;SDS011;54886;47.036;15.466;2023-04-03T05:39:30;2.53;;;1.50;;
68097;SDS011;54886;47.036;15.466;2023-04-03T05:41:56;2.30;;;1.70;;
68097;SDS011;54886;47.036;15.466;2023-04-03T05:44:22;2.13;;;1.70;;
68097;SDS011;54886;47.036;15.466;2023-04-03T05:46:47;2.60;;;1.60;;
68097;SDS011;54886;47.036;15.466;2023-04-03T05:49:13;3.08;;;1.45;;
68097;SDS011;54886;47.036;15.466;2023-04-03T05:51:38;1.67;;;1.58;;
68097;SDS011;54886;47.036;15.466;2023-04-03T05:54:20;3.25;;;1.65;;
68097;SDS011;54886;47.036;15.466;2023-04-03T05:56:48;2.45;;;1.55;;
68097;SDS011;54886;47.036;15.466;2023-04-03T05:59:14;1.83;;;1.67;;
68097;SDS011;54886;47.036;15.466;2023-04-03T06:01:40;1.60;;;1.50;;
68097;SDS011;54886;47.036;15.466;2023-04-03T06:04:06;1.70;;;1.50;;
68097;SDS011;54886;47.036;15.466;2023-04-03T06:06:43;2.53;;;1.52;;
68097;SDS011;54886;47.036;15.466;2023-04-03T06:09:20;2.05;;;1.60;;
68097;SDS011;54886;47.036;15.466;2023-04-03T06:14:13;1.85;;;1.60;;
68097;SDS011;54886;47.036;15.466;2023-04-03T06:16:38;2.30;;;1.60;;
68097;SDS011;54886;47.036;15.466;2023-04-03T06:19:04;3.13;;;1.45;;
68097;SDS011;54886;47.036;15.466;2023-04-03T06:21:31;3.35;;;1.60;;
68097;SDS011;54886;47.036;15.466;2023-04-03T06:23:56;3.08;;;1.60;;
68097;SDS011;54886;47.036;15.466;2023-04-03T06:26:22;2.30;;;1.70;;
68097;SDS011;54886;47.036;15.466;2023-04-03T06:28:47;2.70;;;1.50;;
68097;SDS011;54886;47.036;15.466;2023-04-03T06:31:13;1.52;;;1.42;;
68097;SDS011;54886;47.036;15.466;2023-04-03T06:33:38;2.97;;;1.60;;
68097;SDS011;54886;47.036;15.466;2023-04-03T06:36:04;2.85;;;1.50;;
68097;SDS011;54886;47.036;15.466;2023-04-03T06:38:30;2.33;;;1.58;;
68097;SDS011;54886;47.036;15.466;2023-04-03T06:40:56;3.60;;;1.50;;
68097;SDS011;54886;47.036;15.466;2023-04-03T06:43:22;3.50;;;1.58;;
68097;SDS011;54886;47.036;15.466;2023-04-03T06:45:47;2.17;;;1.50;;
68097;SDS011;54886;47.036;15.466;2023-04-03T06:48:13;2.40;;;1.55;;
68097;SDS011;54886;47.036;15.466;2023-04-03T06:50:38;1.75;;;1.42;;
68097;SDS011;54886;47.036;15.466;2023-04-03T06:53:04;2.65;;;1.50;;
68097;SDS011;54886;47.036;15.466;2023-04-03T06:55:30;2.78;;;1.60;;
68097;SDS011;54886;47.036;15.466;2023-04-03T06:57:56;1.60;;;1.50;;
68097;SDS011;54886;47.036;15.466;2023-04-03T07:00:22;1.77;;;1.60;;
68097;SDS011;54886;47.036;15.466;2023-04-03T07:02:47;2.50;;;1.52;;
68097;SDS011;54886;47.036;15.466;2023-04-03T07:05:13;4.63;;;1.70;;
68097;SDS011;54886;47.036;15.466;2023-04-03T07:07:38;2.42;;;1.55;;
68097;SDS011;54886;47.036;15.466;2023-04-03T07:10:05;2.60;;;1.60;;
68097;SDS011;54886;47.036;15.466;2023-04-03T07:12:31;2.72;;;1.67;;
68097;SDS011;54886;47.036;15.466;2023-04-03T07:14:57;2.20;;;1.58;;
68097;SDS011;54886;47.036;15.466;2023-04-03T07:17:23;2.10;;;1.50;;
68097;SDS011;54886;47.036;15.466;2023-04-03T07:19:48;4.65;;;1.60;;
68097;SDS011;54886;47.036;15.466;2023-04-03T07:22:14;1.63;;;1.52;;
68097;SDS011;54886;47.036;15.466;2023-04-03T07:24:39;2.33;;;1.48;;
68097;SDS011;54886;47.036;15.466;2023-04-03T07:27:05;2.28;;;1.67;;
68097;SDS011;54886;47.036;15.466;2023-04-03T07:29:30;4.18;;;1.52;;
68097;SDS011;54886;47.036;15.466;2023-04-03T07:31:56;2.72;;;1.70;;
68097;SDS011;54886;47.036;15.466;2023-04-03T07:34:22;5.00;;;1.70;;
68097;SDS011;54886;47.036;15.466;2023-04-03T07:36:47;2.78;;;1.70;;
68097;SDS011;54886;47.036;15.466;2023-04-03T07:39:12;2.65;;;1.50;;
68097;SDS011;54886;47.036;15.466;2023-04-03T07:41:38;1.50;;;1.40;;
68097;SDS011;54886;47.036;15.466;2023-04-03T07:44:03;1.67;;;1.50;;
68097;SDS011;54886;47.036;15.466;2023-04-03T07:46:29;1.80;;;1.52;;
68097;SDS011;54886;47.036;15.466;2023-04-03T07:48:55;2.97;;;1.83;;
68097;SDS011;54886;47.036;15.466;2023-04-03T07:51:20;1.90;;;1.60;;
68097;SDS011;54886;47.036;15.466;2023-04-03T07:53:46;2.10;;;1.70;;
68097;SDS011;54886;47.036;15.466;2023-04-03T07:56:11;2.30;;;1.67;;
68097;SDS011;54886;47.036;15.466;2023-04-03T07:58:36;2.50;;;1.60;;
68097;SDS011;54886;47.036;15.466;2023-04-03T08:01:02;1.52;;;1.42;;
68097;SDS011;54886;47.036;15.466;2023-04-03T08:03:28;3.03;;;1.70;;
68097;SDS011;54886;47.036;15.466;2023-04-03T08:05:53;2.30;;;1.70;;
68097;SDS011;54886;47.036;15.466;2023-04-03T08:08:20;3.25;;;1.80;;
68097;SDS011;54886;47.036;15.466;2023-04-03T08:10:50;2.30;;;1.50;;
68097;SDS011;54886;47.036;15.466;2023-04-03T08:13:17;1.92;;;1.50;;
68097;SDS011;54886;47.036;15.466;2023-04-03T08:15:43;2.38;;;1.50;;
68097;SDS011;54886;47.036;15.466;2023-04-03T08:18:08;2.03;;;1.52;;
68097;SDS011;54886;47.036;15.466;2023-04-03T08:20:34;1.40;;;1.30;;
68097;SDS011;54886;47.036;15.466;2023-04-03T08:22:59;2.13;;;1.55;;
68097;SDS011;54886;47.036;15.466;2023-04-03T08:25:25;3.08;;;1.60;;
68097;SDS011;54886;47.036;15.466;2023-04-03T08:27:50;1.48;;;1.38;;
68097;SDS011;54886;47.036;15.466;2023-04-03T08:30:16;5.60;;;1.65;;
68097;SDS011;54886;47.036;15.466;2023-04-03T08:32:42;3.90;;;1.35;;
68097;SDS011;54886;47.036;15.466;2023-04-03T08:35:09;2.20;;;1.40;;
68097;SDS011;54886;47.036;15.466;2023-04-03T08:37:35;2.67;;;1.38;;
68097;SDS011;54886;47.036;15.466;2023-04-03T08:40:02;1.60;;;1.40;;
68097;SDS011;54886;47.036;15.466;2023-04-03T08:45:17;1.45;;;1.35;;
68097;SDS011;54886;47.036;15.466;2023-04-03T08:50:16;4.03;;;1.40;;
68097;SDS011;54886;47.036;15.466;2023-04-03T08:52:45;2.20;;;1.40;;
68097;SDS011;54886;47.036;15.466;2023-04-03T08:55:25;1.65;;;1.40;;
68097;SDS011;54886;47.036;15.466;2023-04-03T09:00:27;1.30;;;1.20;;
68097;SDS011;54886;47.036;15.466;2023-04-03T09:02:57;1.65;;;1.30;;
68097;SDS011;54886;47.036;15.466;2023-04-03T09:05:32;1.40;;;1.30;;
68097;SDS011;54886;47.036;15.466;2023-04-03T09:10:48;4.45;;;1.70;;
68097;SDS011;54886;47.036;15.466;2023-04-03T09:15:56;2.72;;;1.50;;
68097;SDS011;54886;47.036;15.466;2023-04-03T09:18:41;2.53;;;1.40;;
68097;SDS011;54886;47.036;15.466;2023-04-03T09:21:13;1.55;;;1.30;;
68097;SDS011;54886;47.036;15.466;2023-04-03T09:23:48;2.70;;;1.50;;
68097;SDS011;54886;47.036;15.466;2023-04-03T09:26:24;2.65;;;1.67;;
68097;SDS011;54886;47.036;15.466;2023-04-03T09:28:54;1.40;;;1.30;;
68097;SDS011;54886;47.036;15.466;2023-04-03T09:31:24;4.10;;;1.30;;
68097;SDS011;54886;47.036;15.466;2023-04-03T09:33:53;2.47;;;1.35;;
68097;SDS011;54886;47.036;15.466;2023-04-03T09:39:27;1.40;;;1.30;;
68097;SDS011;54886;47.036;15.466;2023-04-03T09:42:15;1.50;;;1.40;;
68097;SDS011;54886;47.036;15.466;2023-04-03T09:44:44;2.03;;;1.40;;
68097;SDS011;54886;47.036;15.466;2023-04-03T09:49:56;1.85;;;1.40;;
68097;SDS011;54886;47.036;15.466;2023-04-03T09:52:34;1.50;;;1.35;;
68097;SDS011;54886;47.036;15.466;2023-04-03T09:55:06;2.80;;;1.40;;
68097;SDS011;54886;47.036;15.466;2023-04-03T09:57:32;2.13;;;1.52;;
68097;SDS011;54886;47.036;15.466;2023-04-03T09:59:59;1.60;;;1.50;;
68097;SDS011;54886;47.036;15.466;2023-04-03T10:02:33;1.63;;;1.48;;
68097;SDS011;54886;47.036;15.466;2023-04-03T10:10:44;2.03;;;1.48;;
68097;SDS011;54886;47.036;15.466;2023-04-03T10:13:16;2.38;;;1.40;;
68097;SDS011;54886;47.036;15.466;2023-04-03T10:15:45;1.65;;;1.40;;
68097;SDS011;54886;47.036;15.466;2023-04-03T10:21:15;1.50;;;1.40;;
68097;SDS011;54886;47.036;15.466;2023-04-03T10:24:17;1.50;;;1.33;;
68097;SDS011;54886;47.036;15.466;2023-04-03T10:26:57;1.77;;;1.40;;
68097;SDS011;54886;47.036;15.466;2023-04-03T10:29:29;1.40;;;1.30;;
68097;SDS011;54886;47.036;15.466;2023-04-03T10:35:39;1.90;;;1.38;;
68097;SDS011;54886;47.036;15.466;2023-04-03T10:40:32;1.50;;;1.40;;
68097;SDS011;54886;47.036;15.466;2023-04-03T10:46:07;1.90;;;1.30;;
68097;SDS011;54886;47.036;15.466;2023-04-03T10:51:47;1.25;;;1.17;;
68097;SDS011;54886;47.036;15.466;2023-04-03T10:54:20;1.75;;;1.35;;
68097;SDS011;54886;47.036;15.466;2023-04-03T10:56:55;1.40;;;1.30;;
68097;SDS011;54886;47.036;15.466;2023-04-03T10:59:32;1.75;;;1.40;;
68097;SDS011;54886;47.036;15.466;2023-04-03T11:02:13;3.47;;;1.55;;
68097;SDS011;54886;47.036;15.466;2023-04-03T11:04:48;1.45;;;1.33;;
68097;SDS011;54886;47.036;15.466;2023-04-03T11:07:39;1.50;;;1.40;;
68097;SDS011;54886;47.036;15.466;2023-04-03T11:10:15;3.35;;;1.35;;
68097;SDS011;54886;47.036;15.466;2023-04-03T11:12:47;2.25;;;1.60;;
68097;SDS011;54886;47.036;15.466;2023-04-03T11:15:16;2.20;;;1.48;;
68097;SDS011;54886;47.036;15.466;2023-04-03T11:17:46;1.85;;;1.40;;
68097;SDS011;54886;47.036;15.466;2023-04-03T11:20:25;2.70;;;1.50;;
68097;SDS011;54886;47.036;15.466;2023-04-03T11:23:00;1.60;;;1.50;;
68097;SDS011;54886;47.036;15.466;2023-04-03T11:25:29;1.60;;;1.50;;
68097;SDS011;54886;47.036;15.466;2023-04-03T11:28:04;1.40;;;1.30;;
68097;SDS011;54886;47.036;15.466;2023-04-03T11:36:01;1.60;;;1.50;;
68097;SDS011;54886;47.036;15.466;2023-04-03T11:38:41;1.83;;;1.70;;
68097;SDS011;54886;47.036;15.466;2023-04-03T11:41:10;1.42;;;1.30;;
68097;SDS011;54886;47.036;15.466;2023-04-03T11:43:41;1.98;;;1.60;;
68097;SDS011;54886;47.036;15.466;2023-04-03T11:46:20;2.13;;;1.50;;
68097;SDS011;54886;47.036;15.466;2023-04-03T11:48:47;2.10;;;1.50;;
68097;SDS011;54886;47.036;15.466;2023-04-03T11:53:42;2.67;;;1.63;;
68097;SDS011;54886;47.036;15.466;2023-04-03T12:04:16;1.63;;;1.48;;
68097;SDS011;54886;47.036;15.466;2023-04-03T12:09:56;2.80;;;1.63;;
68097;SDS011;54886;47.036;15.466;2023-04-03T12:14:51;3.58;;;1.60;;
68097;SDS011;54886;47.036;15.466;2023-04-03T12:17:25;2.53;;;1.63;;
68097;SDS011;54886;47.036;15.466;2023-04-03T12:19:52;2.58;;;1.50;;
68097;SDS011;54886;47.036;15.466;2023-04-03T12:22:18;2.25;;;1.60;;
68097;SDS011;54886;47.036;15.466;2023-04-03T12:24:49;2.22;;;1.50;;
68097;SDS011;54886;47.036;15.466;2023-04-03T12:27:19;2.30;;;1.60;;
68097;SDS011;54886;47.036;15.466;2023-04-03T12:32:36;1.55;;;1.40;;
68097;SDS011;54886;47.036;15.466;2023-04-03T12:45:24;1.77;;;1.60;;
68097;SDS011;54886;47.036;15.466;2023-04-03T12:47:52;1.48;;;1.38;;
68097;SDS011;54886;47.036;15.466;2023-04-03T12:50:23;2.63;;;1.55;;
68097;SDS011;54886;47.036;15.466;2023-04-03T12:52:57;1.55;;;1.42;;
68097;SDS011;54886;47.036;15.466;2023-04-03T12:55:29;3.13;;;1.50;;
68097;SDS011;54886;47.036;15.466;2023-04-03T12:57:54;3.20;;;1.60;;
68097;SDS011;54886;47.036;15.466;2023-04-03T13:02:46;4.15;;;1.80;;
68097;SDS011;54886;47.036;15.466;2023-04-03T13:05:16;1.77;;;1.58;;
68097;SDS011;54886;47.036;15.466;2023-04-03T13:07:43;2.63;;;1.52;;
68097;SDS011;54886;47.036;15.466;2023-04-03T13:10:14;1.52;;;1.40;;
68097;SDS011;54886;47.036;15.466;2023-04-03T13:12:52;2.17;;;1.50;;
68097;SDS011;54886;47.036;15.466;2023-04-03T13:17:47;1.70;;;1.60;;
68097;SDS011;54886;47.036;15.466;2023-04-03T13:20:23;2.03;;;1.40;;
68097;SDS011;54886;47.036;15.466;2023-04-03T13:22:55;3.10;;;1.67;;
68097;SDS011;54886;47.036;15.466;2023-04-03T13:25:28;3.20;;;1.60;;
68097;SDS011;54886;47.036;15.466;2023-04-03T13:27:56;2.47;;;1.58;;
68097;SDS011;54886;47.036;15.466;2023-04-03T13:30:28;1.67;;;1.58;;
68097;SDS011;54886;47.036;15.466;2023-04-03T13:32:58;2.53;;;1.55;;
68097;SDS011;54886;47.036;15.466;2023-04-03T13:35:39;2.50;;;1.40;;
68097;SDS011;54886;47.036;15.466;2023-04-03T13:40:47;2.45;;;1.30;;
68097;SDS011;54886;47.036;15.466;2023-04-03T13:43:26;2.05;;;1.40;;
68097;SDS011;54886;47.036;15.466;2023-04-03T13:45:55;2.55;;;1.60;;
68097;SDS011;54886;47.036;15.466;2023-04-03T13:56:13;2.17;;;1.58;;
68097;SDS011;54886;47.036;15.466;2023-04-03T14:01:37;3.35;;;1.60;;
68097;SDS011;54886;47.036;15.466;2023-04-03T14:04:20;1.40;;;1.30;;
68097;SDS011;54886;47.036;15.466;2023-04-03T14:06:52;1.50;;;1.40;;
68097;SDS011;54886;47.036;15.466;2023-04-03T14:09:18;2.15;;;1.60;;
68097;SDS011;54886;47.036;15.466;2023-04-03T14:11:45;2.83;;;1.40;;
68097;SDS011;54886;47.036;15.466;2023-04-03T14:14:14;1.40;;;1.27;;
68097;SDS011;54886;47.036;15.466;2023-04-03T14:16:43;2.28;;;1.63;;
68097;SDS011;54886;47.036;15.466;2023-04-03T14:19:17;1.67;;;1.58;;
68097;SDS011;54886;47.036;15.466;2023-04-03T14:21:50;2.50;;;1.70;;
68097;SDS011;54886;47.036;15.466;2023-04-03T14:24:17;3.23;;;1.60;;
68097;SDS011;54886;47.036;15.466;2023-04-03T14:26:44;2.70;;;1.58;;
68097;SDS011;54886;47.036;15.466;2023-04-03T14:29:10;2.22;;;1.50;;
68097;SDS011;54886;47.036;15.466;2023-04-03T14:31:36;1.60;;;1.50;;
68097;SDS011;54886;47.036;15.466;2023-04-03T14:34:02;2.67;;;1.52;;
68097;SDS011;54886;47.036;15.466;2023-04-03T14:36:28;1.83;;;1.45;;
68097;SDS011;54886;47.036;15.466;2023-04-03T14:38:54;4.60;;;1.65;;
68097;SDS011;54886;47.036;15.466;2023-04-03T14:41:22;5.18;;;2.35;;
68097;SDS011;54886;47.036;15.466;2023-04-03T14:43:49;4.03;;;1.80;;
68097;SDS011;54886;47.036;15.466;2023-04-03T14:46:16;3.35;;;1.98;;
68097;SDS011;54886;47.036;15.466;2023-04-03T14:48:47;3.38;;;1.90;;
68097;SDS011;54886;47.036;15.466;2023-04-03T14:51:13;2.33;;;1.58;;
68097;SDS011;54886;47.036;15.466;2023-04-03T14:53:40;3.08;;;1.73;;
68097;SDS011;54886;47.036;15.466;2023-04-03T14:56:17;3.17;;;1.73;;
68097;SDS011;54886;47.036;15.466;2023-04-03T14:58:55;2.13;;;1.60;;
68097;SDS011;54886;47.036;15.466;2023-04-03T15:01:23;3.90;;;1.85;;
68097;SDS011;54886;47.036;15.466;2023-04-03T15:03:49;5.22;;;1.70;;
68097;SDS011;54886;47.036;15.466;2023-04-03T15:06:15;4.25;;;1.88;;
68097;SDS011;54886;47.036;15.466;2023-04-03T15:08:41;3.35;;;1.63;;
68097;SDS011;54886;47.036;15.466;2023-04-03T15:11:12;1.70;;;1.60;;
68097;SDS011;54886;47.036;15.466;2023-04-03T15:13:38;2.70;;;1.73;;
68097;SDS011;54886;47.036;15.466;2023-04-03T15:16:05;3.03;;;1.80;;
68097;SDS011;54886;47.036;15.466;2023-04-03T15:18:37;1.88;;;1.70;;
68097;SDS011;54886;47.036;15.466;2023-04-03T15:21:03;2.03;;;1.60;;
68097;SDS011;54886;47.036;15.466;2023-04-03T15:23:29;3.22;;;1.88;;
68097;SDS011;54886;47.036;15.466;2023-04-03T15:25:55;2.67;;;1.88;;
68097;SDS011;54886;47.036;15.466;2023-04-03T15:30:52;3.42;;;1.75;;
68097;SDS011;54886;47.036;15.466;2023-04-03T15:33:18;4.35;;;1.80;;
68097;SDS011;54886;47.036;15.466;2023-04-03T15:35:43;3.92;;;1.75;;
68097;SDS011;54886;47.036;15.466;2023-04-03T15:38:09;3.08;;;1.60;;
68097;SDS011;54886;47.036;15.466;2023-04-03T15:40:35;3.22;;;1.70;;
68097;SDS011;54886;47.036;15.466;2023-04-03T15:43:01;3.55;;;1.92;;
68097;SDS011;54886;47.036;15.466;2023-04-03T15:45:28;2.75;;;1.80;;
68097;SDS011;54886;47.036;15.466;2023-04-03T15:47:55;3.03;;;1.88;;
68097;SDS011;54886;47.036;15.466;2023-04-03T15:50:20;3.22;;;1.75;;
68097;SDS011;54886;47.036;15.466;2023-04-03T15:52:48;1.80;;;1.60;;
68097;SDS011;54886;47.036;15.466;2023-04-03T15:55:18;4.18;;;1.98;;
68097;SDS011;54886;47.036;15.466;2023-04-03T15:57:44;3.78;;;1.80;;
68097;SDS011;54886;47.036;15.466;2023-04-03T16:00:10;2.72;;;2.00;;
68097;SDS011;54886;47.036;15.466;2023-04-03T16:02:36;2.67;;;1.85;;
68097;SDS011;54886;47.036;15.466;2023-04-03T16:05:01;2.63;;;1.95;;
68097;SDS011;54886;47.036;15.466;2023-04-03T16:07:27;2.50;;;1.80;;
68097;SDS011;54886;47.036;15.466;2023-04-03T16:09:53;4.20;;;1.80;;
68097;SDS011;54886;47.036;15.466;2023-04-03T16:12:18;2.80;;;2.00;;
68097;SDS011;54886;47.036;15.466;2023-04-03T16:14:43;2.47;;;1.80;;
68097;SDS011;54886;47.036;15.466;2023-04-03T16:17:09;3.45;;;1.92;;
68097;SDS011;54886;47.036;15.466;2023-04-03T16:19:34;3.90;;;1.92;;
68097;SDS011;54886;47.036;15.466;2023-04-03T16:22:00;3.15;;;1.80;;